createdAt,value
2017-11-16T00:00:09.628Z,31.87
2017-11-16T00:02:37.145Z,32.97
2017-11-16T00:05:04.710Z,36.87
2017-11-16T00:07:32.221Z,32.53
2017-11-16T00:09:59.724Z,31.90
2017-11-16T00:12:27.256Z,30.43
2017-11-16T00:14:54.768Z,30.43
2017-11-16T00:17:23.060Z,31.67
2017-11-16T00:19:50.567Z,29.23
2017-11-16T00:22:18.096Z,29.37
2017-11-16T00:24:45.608Z,28.73
2017-11-16T00:27:13.900Z,30.77
2017-11-16T00:29:41.408Z,27.13
2017-11-16T00:32:08.925Z,28.20
2017-11-16T00:34:36.440Z,28.80
2017-11-16T00:37:03.972Z,27.60
2017-11-16T00:39:31.479Z,26.50
2017-11-16T00:41:59.012Z,26.27
2017-11-16T00:44:26.515Z,27.50
2017-11-16T00:46:54.040Z,25.27
2017-11-16T00:49:22.319Z,27.33
2017-11-16T00:51:49.854Z,30.77
2017-11-16T00:54:17.369Z,28.97
2017-11-16T00:56:44.891Z,28.43
2017-11-16T00:59:12.401Z,27.27
2017-11-16T01:01:39.928Z,30.97
2017-11-16T01:04:08.206Z,28.53
2017-11-16T01:06:36.502Z,31.30
2017-11-16T01:09:04.030Z,29.00
2017-11-16T01:11:32.302Z,30.77
2017-11-16T01:14:00.591Z,32.90
2017-11-16T01:16:28.864Z,28.10
2017-11-16T01:18:57.152Z,27.80
2017-11-16T01:21:24.669Z,29.70
2017-11-16T01:23:52.193Z,28.00
2017-11-16T01:26:19.709Z,28.00
2017-11-16T01:28:48.000Z,27.40
2017-11-16T01:31:15.512Z,29.30
2017-11-16T01:33:43.044Z,27.33
2017-11-16T01:36:10.549Z,25.47
2017-11-16T01:38:38.841Z,26.83
2017-11-16T01:41:07.116Z,30.23
2017-11-16T01:43:34.653Z,28.87
2017-11-16T01:46:02.167Z,29.10
2017-11-16T01:48:29.704Z,25.10
2017-11-16T01:50:57.219Z,26.83
2017-11-16T01:53:24.745Z,28.20
2017-11-16T01:55:52.253Z,25.43
2017-11-16T01:58:20.549Z,29.70
2017-11-16T02:00:48.062Z,26.53
2017-11-16T02:03:15.587Z,25.63
2017-11-16T02:05:43.114Z,24.70
2017-11-16T02:08:11.387Z,25.60
2017-11-16T02:10:39.689Z,25.73
2017-11-16T02:13:07.212Z,24.30
2017-11-16T02:15:35.504Z,25.43
2017-11-16T02:18:03.793Z,26.83
2017-11-16T02:20:31.317Z,25.27
2017-11-16T02:22:58.820Z,24.07
2017-11-16T02:25:26.352Z,26.20
2017-11-16T02:27:54.632Z,24.47
2017-11-16T02:30:22.920Z,24.43
2017-11-16T02:32:50.432Z,26.57
2017-11-16T02:35:17.956Z,24.63
2017-11-16T02:37:45.464Z,25.13
2017-11-16T02:40:13.768Z,27.10
2017-11-16T02:42:41.288Z,23.90
2017-11-16T02:45:08.816Z,22.33
2017-11-16T02:47:36.321Z,24.33
2017-11-16T02:50:04.610Z,23.43
2017-11-16T02:52:32.880Z,25.90
2017-11-16T02:55:01.173Z,23.97
2017-11-16T02:57:28.689Z,25.20
2017-11-16T02:59:56.246Z,24.20
2017-11-16T03:02:23.776Z,23.93
2017-11-16T03:04:51.284Z,26.80
2017-11-16T03:07:19.577Z,25.80
2017-11-16T03:09:47.083Z,26.63
2017-11-16T03:12:14.605Z,25.77
2017-11-16T03:14:42.125Z,25.87
2017-11-16T03:17:09.649Z,25.30
2017-11-16T03:19:37.160Z,26.10
2017-11-16T03:22:05.448Z,27.47
2017-11-16T03:24:32.956Z,25.17
2017-11-16T03:27:00.478Z,25.60
2017-11-16T03:29:27.985Z,25.67
2017-11-16T03:31:55.508Z,23.90
2017-11-16T03:34:23.007Z,23.63
2017-11-16T03:36:50.533Z,23.13
2017-11-16T03:39:18.035Z,22.63
2017-11-16T03:41:46.321Z,21.30
2017-11-16T03:44:14.592Z,22.40
2017-11-16T03:46:42.882Z,23.67
2017-11-16T03:49:10.394Z,22.43
2017-11-16T03:51:37.917Z,22.53
2017-11-16T03:54:05.424Z,23.37
2017-11-16T03:56:32.956Z,22.07
2017-11-16T03:59:00.460Z,22.23
2017-11-16T04:01:28.736Z,21.27
2017-11-16T04:03:57.028Z,26.50
2017-11-16T04:06:24.540Z,22.40
2017-11-16T04:08:52.060Z,21.40
2017-11-16T04:11:19.577Z,23.20
2017-11-16T04:13:47.874Z,23.50
2017-11-16T04:16:15.385Z,22.80
2017-11-16T04:18:42.925Z,22.77
2017-11-16T04:21:10.432Z,23.57
2017-11-16T04:23:38.716Z,21.30
2017-11-16T04:26:06.984Z,21.40
2017-11-16T04:28:35.272Z,21.47
2017-11-16T04:31:03.542Z,22.17
2017-11-16T04:33:31.836Z,23.23
2017-11-16T04:35:59.349Z,20.50
2017-11-16T04:38:26.879Z,22.40
2017-11-16T04:40:54.382Z,20.07
2017-11-16T04:43:22.672Z,23.53
2017-11-16T04:45:50.956Z,20.47
2017-11-16T04:48:18.480Z,19.47
2017-11-16T04:50:45.992Z,22.30
2017-11-16T04:53:13.512Z,21.83
2017-11-16T04:55:41.780Z,22.33
2017-11-16T04:58:09.309Z,20.30
2017-11-16T05:00:36.824Z,20.77
2017-11-16T05:03:04.332Z,19.93
2017-11-16T05:05:31.856Z,20.67
2017-11-16T05:07:59.363Z,20.00
2017-11-16T05:10:26.889Z,20.70
2017-11-16T05:12:54.400Z,18.37
2017-11-16T05:15:22.699Z,19.33
2017-11-16T05:17:50.210Z,20.10
2017-11-16T05:20:17.731Z,18.03
2017-11-16T05:22:45.237Z,21.30
2017-11-16T05:25:12.764Z,21.17
2017-11-16T05:27:40.268Z,21.17
2017-11-16T05:30:08.555Z,19.37
2017-11-16T05:32:36.069Z,19.07
2017-11-16T05:35:03.592Z,20.20
2017-11-16T05:37:31.103Z,21.37
2017-11-16T05:39:58.628Z,21.07
2017-11-16T05:42:26.906Z,19.80
2017-11-16T05:44:54.434Z,20.00
2017-11-16T05:47:21.944Z,18.63
2017-11-16T05:49:49.472Z,19.77
2017-11-16T05:52:16.989Z,20.17
2017-11-16T05:54:45.289Z,18.10
2017-11-16T05:57:12.797Z,20.87
2017-11-16T05:59:40.300Z,20.67
2017-11-16T06:02:07.829Z,19.93
2017-11-16T06:04:36.111Z,21.60
2017-11-16T06:07:04.402Z,21.67
2017-11-16T06:09:31.914Z,20.33
2017-11-16T06:11:59.475Z,21.50
2017-11-16T06:14:26.968Z,24.23
2017-11-16T06:16:55.255Z,22.77
2017-11-16T06:19:22.764Z,22.10
2017-11-16T06:21:50.292Z,21.17
2017-11-16T06:24:17.805Z,21.07
2017-11-16T06:26:46.103Z,20.53
2017-11-16T06:29:13.661Z,22.80
2017-11-16T06:40:51.953Z,22.73
2017-11-16T06:43:19.489Z,20.23
2017-11-16T06:45:47.014Z,18.97
2017-11-16T06:48:14.552Z,17.40
2017-11-16T06:50:42.068Z,18.97
2017-11-16T07:02:20.780Z,20.50
2017-11-16T07:04:48.328Z,22.37
2017-11-16T07:07:16.658Z,20.63
2017-11-16T07:09:45.018Z,21.03
2017-11-16T07:15:17.723Z,18.57
2017-11-16T07:17:45.313Z,21.00
2017-11-16T07:20:12.934Z,18.70
2017-11-16T07:22:41.836Z,19.30
2017-11-16T07:25:10.129Z,17.83
2017-11-16T07:27:38.420Z,19.10
2017-11-16T07:30:05.940Z,18.00
2017-11-16T07:35:38.498Z,18.73
2017-11-16T07:38:06.105Z,18.90
2017-11-16T07:40:33.649Z,19.10
2017-11-16T07:43:02.279Z,18.00
2017-11-16T07:45:29.877Z,18.50
2017-11-16T07:47:57.441Z,23.50
2017-11-16T07:50:24.949Z,19.40
2017-11-16T07:52:53.232Z,17.30
2017-11-16T07:55:20.756Z,19.17
2017-11-16T07:57:48.265Z,17.30
2017-11-16T08:00:15.792Z,19.33
2017-11-16T08:02:44.073Z,18.50
2017-11-16T08:05:12.368Z,20.27
2017-11-16T08:07:39.904Z,18.20
2017-11-16T08:10:08.200Z,19.37
2017-11-16T08:12:35.708Z,18.77
2017-11-16T08:15:03.239Z,19.30
2017-11-16T08:17:31.525Z,18.30
2017-11-16T08:19:59.064Z,18.60
2017-11-16T08:22:26.580Z,15.80
2017-11-16T08:24:54.872Z,17.07
2017-11-16T08:27:23.150Z,18.67
2017-11-16T08:29:51.443Z,20.60
2017-11-16T08:32:18.956Z,18.40
2017-11-16T08:34:46.493Z,17.90
2017-11-16T08:37:14.011Z,20.13
2017-11-16T08:39:41.561Z,19.43
2017-11-16T08:42:09.073Z,16.77
2017-11-16T08:44:36.605Z,16.87
2017-11-16T08:47:04.120Z,17.33
2017-11-16T08:49:32.405Z,15.97
2017-11-16T08:52:00.712Z,17.23
2017-11-16T08:54:28.220Z,16.53
2017-11-16T08:56:55.749Z,16.77
2017-11-16T08:59:23.259Z,17.57
2017-11-16T09:01:51.549Z,15.60
2017-11-16T09:04:19.066Z,18.33
2017-11-16T09:06:46.596Z,20.43
2017-11-16T09:09:14.104Z,17.67
2017-11-16T09:11:42.396Z,16.60
2017-11-16T09:14:09.916Z,17.77
2017-11-16T09:16:37.460Z,19.07
2017-11-16T09:19:04.977Z,17.03
2017-11-16T09:21:32.509Z,17.20
2017-11-16T09:24:00.789Z,18.20
2017-11-16T09:26:29.081Z,17.43
2017-11-16T09:28:56.597Z,18.13
2017-11-16T09:31:24.126Z,18.80
2017-11-16T09:33:51.636Z,18.87
2017-11-16T09:36:19.935Z,18.00
2017-11-16T09:38:47.444Z,20.30
2017-11-16T09:41:14.972Z,18.27
2017-11-16T09:43:42.479Z,19.33
2017-11-16T09:46:10.036Z,19.20
2017-11-16T09:48:38.321Z,18.13
2017-11-16T09:51:06.610Z,19.30
2017-11-16T09:53:34.618Z,18.90
2017-11-16T09:56:02.586Z,20.73
2017-11-16T09:58:30.125Z,19.03
2017-11-16T10:00:57.636Z,18.00
2017-11-16T10:06:29.841Z,19.43
2017-11-16T10:08:58.267Z,17.17
2017-11-16T10:11:26.826Z,20.03
2017-11-16T10:13:54.392Z,20.50
2017-11-16T10:16:22.747Z,18.97
2017-11-16T10:18:50.374Z,21.70
2017-11-16T10:21:17.977Z,18.33
2017-11-16T10:23:45.612Z,18.47
2017-11-16T10:26:13.977Z,18.33
2017-11-16T10:28:41.596Z,18.77
2017-11-16T10:31:09.226Z,19.60
2017-11-16T10:33:41.926Z,17.87
2017-11-16T10:36:09.553Z,18.00
2017-11-16T10:38:37.130Z,18.63
2017-11-16T10:41:04.772Z,19.10
2017-11-16T10:43:33.155Z,16.70
2017-11-16T10:46:01.517Z,16.63
2017-11-16T10:48:29.229Z,16.63
2017-11-16T10:50:56.880Z,17.53
2017-11-16T10:53:25.833Z,18.80
2017-11-16T10:55:53.405Z,19.27
2017-11-16T10:58:21.796Z,16.33
2017-11-16T11:00:50.147Z,16.93
2017-11-16T11:03:17.754Z,16.60
2017-11-16T11:05:45.355Z,18.60
2017-11-16T11:08:12.950Z,19.70
2017-11-16T11:10:41.305Z,17.20
2017-11-16T11:13:08.884Z,17.60
2017-11-16T11:15:37.252Z,15.40
2017-11-16T11:18:05.004Z,17.30
2017-11-16T11:20:33.368Z,17.17
2017-11-16T11:23:02.339Z,17.70
2017-11-16T11:25:29.940Z,18.70
2017-11-16T11:27:57.561Z,18.30
2017-11-16T11:30:25.156Z,16.67
2017-11-16T11:32:52.769Z,18.47
2017-11-16T11:35:20.371Z,18.83
2017-11-16T11:37:47.992Z,19.97
2017-11-16T11:40:15.549Z,19.07
2017-11-16T11:42:43.184Z,19.43
2017-11-16T11:45:11.525Z,20.10
2017-11-16T11:47:39.040Z,18.47
2017-11-16T11:50:06.564Z,20.23
2017-11-16T11:52:34.845Z,20.20
2017-11-16T11:55:03.143Z,19.60
2017-11-16T11:57:30.657Z,19.40
2017-11-16T11:59:58.185Z,18.73
2017-11-16T12:02:25.684Z,18.30
2017-11-16T12:04:53.196Z,19.30
2017-11-16T12:07:20.732Z,24.80
2017-11-16T12:09:48.266Z,20.30
2017-11-16T12:12:15.785Z,20.30
2017-11-16T12:14:43.320Z,22.67
2017-11-16T12:17:10.848Z,25.80
2017-11-16T12:19:39.115Z,20.63
2017-11-16T12:25:11.801Z,20.60
2017-11-16T12:27:39.336Z,22.87
2017-11-16T12:30:07.633Z,20.70
2017-11-16T12:35:32.941Z,18.77
2017-11-16T12:38:00.476Z,18.47
2017-11-16T12:40:27.987Z,18.00
2017-11-16T13:19:31.361Z,21.37
2017-11-16T13:21:58.874Z,18.33
2017-11-16T13:24:26.400Z,18.87
2017-11-16T13:26:54.714Z,19.30
2017-11-16T13:29:22.902Z,21.60
2017-11-16T13:31:51.223Z,19.90
2017-11-16T13:34:19.713Z,17.57
2017-11-16T13:36:47.349Z,19.83
2017-11-16T13:39:16.516Z,18.90
2017-11-16T13:41:44.131Z,21.93
2017-11-16T13:44:11.729Z,19.50
2017-11-16T13:46:40.114Z,18.47
2017-11-16T13:49:09.148Z,18.27
2017-11-16T13:55:24.983Z,19.83
2017-11-16T14:00:49.061Z,21.13
2017-11-16T14:21:08.524Z,18.40
2017-11-16T16:56:27.231Z,19.37
2017-11-16T16:58:54.789Z,20.27
2017-11-16T17:01:22.345Z,20.23
2017-11-16T17:27:13.634Z,20.50
2017-11-16T17:29:41.957Z,20.80
2017-11-16T17:32:09.560Z,19.37
2017-11-16T17:34:37.196Z,19.80
2017-11-16T17:37:04.770Z,19.60
2017-11-16T17:39:32.336Z,23.53
2017-11-16T17:41:59.852Z,22.70
2017-11-16T17:44:27.364Z,19.40
2017-11-16T17:46:54.898Z,21.33
2017-11-16T17:49:22.445Z,20.73
2017-11-16T17:51:49.977Z,22.47
2017-11-16T17:54:17.490Z,20.77
2017-11-16T17:56:45.033Z,20.73
2017-11-16T17:59:12.548Z,24.47
2017-11-16T18:01:40.081Z,21.60
2017-11-16T18:04:07.601Z,23.87
2017-11-16T18:06:35.134Z,20.20
2017-11-16T18:09:02.641Z,26.80
2017-11-16T18:11:30.167Z,23.30
2017-11-16T18:13:57.680Z,28.83
2017-11-16T18:16:26.802Z,30.33
2017-11-16T18:18:54.335Z,27.67
2017-11-16T18:21:23.345Z,21.77
2017-11-16T18:23:50.894Z,21.63
2017-11-16T18:26:19.176Z,19.57
2017-11-16T18:28:47.452Z,23.10
2017-11-16T18:31:14.985Z,23.77
2017-11-16T18:33:43.270Z,24.17
2017-11-16T18:36:11.562Z,24.47
2017-11-16T18:38:39.085Z,24.23
2017-11-16T18:41:06.621Z,25.50
2017-11-16T18:43:34.136Z,24.27
2017-11-16T18:46:01.692Z,24.03
2017-11-16T18:48:29.213Z,25.03
2017-11-16T18:50:56.728Z,24.73
2017-11-16T18:53:24.262Z,24.37
2017-11-16T18:55:51.784Z,22.43
2017-11-16T18:58:19.385Z,22.50
2017-11-16T19:00:47.665Z,21.37
2017-11-16T19:03:15.202Z,22.30
2017-11-16T19:05:43.489Z,19.27
2017-11-16T19:08:11.786Z,22.87
2017-11-16T19:10:39.308Z,28.40
2017-11-16T19:13:06.844Z,29.53
2017-11-16T19:15:34.361Z,25.80
2017-11-16T19:18:01.885Z,23.37
2017-11-16T19:20:30.157Z,22.40
2017-11-16T19:22:58.461Z,24.37
2017-11-16T19:25:25.968Z,23.17
2017-11-16T19:27:53.479Z,30.27
2017-11-16T19:30:20.984Z,30.13
2017-11-16T19:32:48.504Z,33.73
2017-11-16T19:35:16.008Z,30.83
2017-11-16T19:37:43.512Z,26.03
2017-11-16T19:40:11.037Z,32.83
2017-11-16T19:42:38.548Z,33.10
2017-11-16T19:45:06.078Z,26.73
2017-11-16T19:47:34.349Z,27.53
2017-11-16T19:50:02.636Z,24.90
2017-11-16T19:52:30.144Z,26.33
2017-11-16T19:54:57.668Z,29.80
2017-11-16T19:57:25.184Z,34.80
2017-11-16T19:59:53.480Z,27.10
2017-11-16T20:02:21.751Z,31.27
2017-11-16T20:04:50.042Z,29.27
2017-11-16T20:07:17.553Z,26.90
2017-11-16T20:09:45.073Z,28.30
2017-11-16T20:12:12.586Z,35.47
2017-11-16T20:14:40.888Z,26.60
2017-11-16T20:17:08.391Z,26.07
2017-11-16T20:19:35.924Z,40.77
2017-11-16T20:22:03.441Z,40.17
2017-11-16T20:24:31.736Z,31.03
2017-11-16T20:26:59.255Z,27.63
2017-11-16T20:29:26.813Z,73.83
2017-11-16T20:31:54.317Z,98.83
2017-11-16T20:34:21.827Z,48.90
2017-11-16T20:36:49.815Z,33.40
2017-11-16T20:42:37.318Z,30.10
2017-11-16T20:48:11.992Z,23.03
2017-11-16T20:50:45.173Z,26.00
2017-11-16T20:53:14.672Z,31.63
2017-11-16T20:55:42.185Z,24.70
2017-11-16T20:58:09.708Z,24.37
2017-11-16T21:00:37.221Z,24.57
2017-11-16T21:03:04.751Z,25.73
2017-11-16T21:05:34.502Z,42.10
2017-11-16T21:08:02.053Z,84.90
2017-11-16T21:10:29.561Z,28.70
2017-11-16T21:12:57.084Z,25.83
2017-11-16T21:15:24.608Z,27.20
2017-11-16T21:17:52.143Z,28.50
2017-11-16T21:20:20.412Z,25.67
2017-11-16T21:22:47.935Z,26.13
2017-11-16T21:25:15.445Z,25.70
2017-11-16T21:27:43.733Z,23.77
2017-11-16T21:30:11.240Z,25.57
2017-11-16T21:32:38.765Z,24.07
2017-11-16T21:35:06.270Z,26.97
2017-11-16T21:37:33.789Z,26.70
2017-11-16T21:40:01.293Z,26.53
2017-11-16T21:42:28.817Z,25.77
2017-11-16T21:44:57.262Z,24.37
2017-11-16T21:47:24.932Z,27.10
2017-11-16T21:49:52.445Z,23.87
2017-11-16T21:52:19.956Z,26.10
2017-11-16T21:54:47.472Z,26.90
2017-11-16T21:57:15.745Z,25.63
2017-11-16T21:59:43.268Z,29.40
2017-11-16T22:02:10.772Z,25.13
2017-11-16T22:04:39.060Z,26.57
2017-11-16T22:07:07.334Z,25.43
2017-11-16T22:09:41.085Z,25.10
2017-11-16T22:12:08.600Z,25.73
2017-11-16T22:14:37.538Z,32.40
2017-11-16T22:17:05.063Z,27.23
2017-11-16T22:19:33.538Z,24.63
2017-11-16T22:22:01.127Z,25.90
2017-11-16T22:24:29.243Z,26.07
2017-11-16T22:26:56.784Z,26.83
2017-11-16T22:29:24.304Z,26.10
2017-11-16T22:31:51.804Z,25.00
2017-11-16T22:34:19.328Z,26.77
2017-11-16T22:36:46.837Z,27.37
2017-11-16T22:39:15.128Z,25.70
2017-11-16T22:41:43.400Z,27.30
2017-11-16T22:44:11.963Z,29.20
2017-11-16T22:46:39.473Z,28.57
2017-11-16T22:49:07.029Z,26.47
2017-11-16T22:51:34.539Z,26.80
2017-11-16T22:54:02.816Z,27.57
2017-11-16T22:56:30.340Z,28.40
2017-11-16T22:58:57.844Z,28.70
2017-11-16T23:01:26.137Z,25.13
2017-11-16T23:03:53.651Z,28.57
2017-11-16T23:06:21.171Z,27.63
2017-11-16T23:08:48.680Z,27.63
2017-11-16T23:11:16.201Z,27.00
2017-11-16T23:13:43.708Z,28.20
2017-11-16T23:16:12.000Z,27.57
2017-11-16T23:21:13.492Z,27.07
2017-11-16T23:23:41.009Z,27.43
2017-11-16T23:26:09.296Z,27.33
2017-11-16T23:28:37.567Z,27.63
2017-11-16T23:31:05.856Z,27.27
2017-11-16T23:33:33.365Z,25.70
2017-11-16T23:36:00.889Z,27.13
2017-11-16T23:38:28.396Z,29.90
2017-11-16T23:40:55.935Z,28.30
2017-11-16T23:43:23.445Z,26.90
2017-11-16T23:45:50.984Z,26.43
2017-11-16T23:48:19.271Z,27.70
2017-11-16T23:50:47.580Z,28.87
2017-11-16T23:53:15.084Z,29.67
2017-11-16T23:55:42.593Z,25.63
2017-11-16T23:58:10.125Z,27.90
